This is the latest recevied weather packets stored in our database for station/object JH7MHZ-13. If no packets are shown the sender has not sent any weather packets the latest 10 day(s).
| Time | Temp. | Humidity | Pressure | Rain* | Wind** | Luminosity | Snow |
|---|---|---|---|---|---|---|---|
| 1777572409 | 5° C | 87% | 994.3 hPa | 0 mm | - | - | - |
| 1777568809 | 5.56° C | 88% | 995.4 hPa | 0 mm | - | - | - |
| 1777565208 | 6.11° C | 88% | 996.1 hPa | 0 mm | - | - | - |
| 1777561608 | 7.22° C | 86% | 997 hPa | 0 mm | - | - | - |
| 1777558007 | 7.22° C | 84% | 998.1 hPa | 0 mm | - | - | - |
| 1777554406 | 7.78° C | 83% | 998.6 hPa | 0 mm | - | - | - |
| 1777550806 | 8.33° C | 82% | 999 hPa | 0 mm | - | - | - |
| 1777547205 | 9.44° C | 79% | 999.3 hPa | 0 mm | - | - | - |
| 1777543605 | 11.67° C | 72% | 999.1 hPa | 0 mm | - | - | - |
| 1777540004 | 15° C | 53% | 998.3 hPa | 0 mm | - | - | - |
| 1777536404 | 17.22° C | 48% | 997.7 hPa | 0 mm | - | - | - |
| 1777532803 | 19.44° C | 40% | 997.6 hPa | 0 mm | - | - | - |
| 1777529204 | 20° C | 39% | 997.7 hPa | 0 mm | - | - | - |
| 1777525603 | 18.89° C | 44% | 998 hPa | 0 mm | - | - | - |
| 1777522001 | 18.33° C | 50% | 999 hPa | 0 mm | - | - | - |
| 1777518401 | 17.22° C | 51% | 999.4 hPa | 0 mm | - | - | - |
| 1777514800 | 15.56° C | 59% | 1000.1 hPa | 0 mm | - | - | - |
| 1777511200 | 15° C | 59% | 1000.5 hPa | 0 mm | - | - | - |
| 1777507599 | 12.22° C | 65% | 1000.9 hPa | 0 mm | - | - | - |
| 1777503999 | 11.67° C | 69% | 1001.3 hPa | 0 mm | - | - | - |
| 1777500398 | 8.33° C | 79% | 1001.5 hPa | 0 mm | - | - | - |
| 1777496797 | 5° C | 89% | 1001.5 hPa | 0 mm | - | - | - |
| 1777493197 | 2.78° C | 93% | 1001.1 hPa | 0 mm | - | - | - |
| 1777489596 | 3.89° C | 93% | 1000.8 hPa | 0 mm | - | - | - |
| 1777485996 | 4.44° C | 91% | 1000.6 hPa | 0 mm | - | - | - |
* Rain latest hour (hover to see other rain measurements)
** Current wind speed in m/s (hover to see current wind gust speed)